Chitre, Panama
Current Conditions -  °F | °C
As of 7:00 PM on Thursday 18 Dec 2014 (Local Time) from MPMG Reporting Station
Scattered Clouds Scattered Clouds  
Wind Chill: 79°   Ceiling: Unl
Heat Index: 83°   Visibility: 6mi
Dew Point: 77°   Wind: 6mph
Humidity: 94%   Direction: 330°NNW
Pressure: 29.83"   Gusts: NA
Location:  7.97°N, 80.42°W
Report Text: MPMG 190000Z 33005KT 9999 FEW018 SCT090 26/25 Q1010 RETSRA RWY DAMP NOSIG
Loading
Personal Weather Stations






























Interactive Weather Map New forecast layout! Learn more

10-Day Weather Forecast

Advertisements
Track Severe Weather on mobile